Data Catalog for Jemez Field Sites

Download Data Catalog File  (MS Excel)

Map of Jemez Field Areas

Latitude:35.851455
Longitude:-106.449722
Spatial Reference:  NAD83
Elevation:2710.0 m
Vertical Datum: MSL

Data LinkVariable NameUnitTime SupportQC LevelOffset H/DStart DateEnd DateCount
Metadata & DataBarometric pressurekPa30.0 min11.65 m2011-11-29 2016-12-31 89256
Barometric pressurekPa1.0 d21.65 m2011-11-29 2012-02-29 93
Metadata & DataBattery voltageV30.0 min1 2011-11-29 2016-12-31 89256
Battery voltageV1.0 d2 2011-11-29 2012-02-29 93
Metadata & DataPrecipitationmm30.0 min11.5 m2011-11-29 2016-12-31 89256
Precipitationmm1.0 d21.5 m2011-11-29 2012-02-29 93
Metadata & DataRelative humidity%30.0 min12.45 m2011-11-29 2016-12-31 89256
Relative humidity%1.0 d22.45 m2011-11-29 2012-02-29 93
Metadata & DataTemperaturedegC30.0 min12.45 m2011-11-29 2016-12-31 89256
TemperaturedegC1.0 d22.45 m2011-11-29 2012-02-29 93
Metadata & DataWind directiondeg30.0 min13.09 m2011-11-29 2016-12-31 89256
Wind directiondeg1.0 d23.09 m2011-11-29 2012-02-29 93
Metadata & DataWind direction, horizontal standard deviationdeg30.0 min13.09 m2011-11-29 2016-12-31 89256
Metadata & DataWind speedm/s30.0 min13.09 m2011-11-29 2016-12-31 89256
Wind speedm/s1.0 d23.09 m2011-11-29 2012-02-29 93
Latitude:35.847847
Longitude:-106.449911
Spatial Reference:  NAD83
Elevation:2789.0 m
Vertical Datum: MSL

Data LinkVariable NameUnitTime SupportQC LevelOffset H/DStart DateEnd DateCount
Metadata & DataBattery voltageV30.0 min1 2011-11-18 2016-12-31 89784
Battery voltageV1.0 d2 2011-11-18 2012-02-29 104
Metadata & DataPrecipitationmm30.0 min11.5 m2011-11-18 2016-12-31 89784
Precipitationmm1.0 d21.5 m2011-11-18 2012-02-29 104
Metadata & DataRadiation, netW/m^230.0 min12.75 m2011-11-18 2016-12-31 89784
Radiation, netW/m^21.0 d22.75 m2011-11-18 2012-02-29 104
Metadata & DataRelative humidity%30.0 min12.45 m2011-11-18 2016-12-31 89784
Relative humidity%1.0 d22.45 m2011-11-18 2012-02-29 104
Metadata & DataTemperaturedegC30.0 min12.45 m2011-11-18 2016-12-31 89784
TemperaturedegC1.0 d22.45 m2011-11-18 2012-02-29 104
Metadata & DataWind directiondeg30.0 min13.09 m2011-11-18 2016-12-31 89784
Wind directiondeg1.0 d23.09 m2011-11-18 2012-02-29 104
Metadata & DataWind direction, horizontal standard deviationdeg30.0 min13.09 m2011-11-18 2016-12-31 89784
Metadata & DataWind speedm/s30.0 min13.09 m2011-11-18 2016-12-31 89784
Wind speedm/s1.0 d23.09 m2011-11-18 2012-02-29 104
Latitude:35.882333
Longitude:-106.534417
Spatial Reference:  NAD83
Elevation:3014.2 m
Vertical Datum: MSL

Data LinkVariable NameUnitTime SupportQC LevelOffset H/DStart DateEnd DateCount
Metadata & DataAlbedo-30.0 min12.84 m2011-01-01 2016-12-31 105216
Albedo-1.0 d22.84 m2011-01-01 2012-02-29 425
Metadata & DataBarometric pressurekPa30.0 min11.65 m2010-09-26 2016-12-31 109843
Barometric pressurekPa1.0 d21.65 m2010-09-27 2012-02-29 521
Metadata & DataBattery voltageV30.0 min1 2010-09-26 2013-12-31 57235
Battery voltageV1.0 d2 2010-09-27 2012-02-29 521
Metadata & DataPrecipitationmm30.0 min11.5 m2010-09-26 2011-03-29 8815
Metadata & DataPrecipitationmm30.0 min11.5 m2011-01-01 2016-12-31 101028
Precipitationmm1.0 d21.5 m2010-09-27 2012-02-29 521
Metadata & DataRadiation, incoming longwaveW/m^230.0 min12.84 m2011-01-01 2016-12-31 105216
Metadata & DataRadiation, incoming longwaveW/m^230.0 min12.84 m2011-01-01 2016-12-31 105216
Radiation, incoming longwaveW/m^21.0 d22.84 m2011-01-01 2012-02-29 425
Radiation, incoming longwaveW/m^21.0 d22.84 m2011-01-01 2012-02-29 425
Metadata & DataRadiation, incoming shortwaveW/m^230.0 min12.84 m2011-01-01 2016-12-31 105216
Radiation, incoming shortwaveW/m^21.0 d22.84 m2011-01-01 2012-02-29 425
Metadata & DataRadiation, netW/m^230.0 min12.84 m2011-01-01 2016-12-31 105216
Radiation, netW/m^21.0 d22.84 m2011-01-01 2012-02-29 425
Metadata & DataRadiation, net longwaveW/m^230.0 min12.84 m2011-01-01 2016-12-31 105216
Metadata & DataRadiation, net shortwaveW/m^230.0 min12.84 m2011-01-01 2016-12-31 105216
Metadata & DataRadiation, outgoing longwaveW/m^230.0 min12.84 m2011-01-01 2016-12-31 105216
Metadata & DataRadiation, outgoing longwaveW/m^230.0 min12.84 m2011-01-01 2016-12-31 105216
Radiation, outgoing longwaveW/m^21.0 d22.84 m2011-01-01 2012-02-29 425
Radiation, outgoing longwaveW/m^21.0 d22.84 m2011-01-01 2012-02-29 425
Metadata & DataRadiation, outgoing shortwaveW/m^230.0 min12.84 m2011-01-01 2016-12-31 105216
Radiation, outgoing shortwaveW/m^21.0 d22.84 m2011-01-01 2012-02-29 425
Metadata & DataRelative humidity%30.0 min12.45 m2010-09-26 2016-12-31 109843
Relative humidity%1.0 d22.45 m2010-09-27 2012-02-29 521
Metadata & DataTemperaturedegC30.0 min12.45 m2010-09-26 2016-12-31 109843
TemperaturedegC1.0 d22.45 m2010-09-27 2012-02-29 521
Metadata & DataTemperaturedegC30.0 min12.84 m2011-01-01 2016-12-31 105216
Metadata & DataWind directiondeg30.0 min13.09 m2010-09-26 2016-12-31 109843
Wind directiondeg1.0 d23.09 m2010-09-27 2012-02-29 521
Metadata & DataWind direction, horizontal standard deviationdeg30.0 min13.09 m2010-09-26 2016-12-31 109843
Metadata & DataWind speedm/s30.0 min13.09 m2010-09-26 2016-12-31 109843
Wind speedm/s1.0 d23.09 m2010-09-27 2012-02-29 521
Latitude:35.883447
Longitude:-106.536258
Spatial Reference:  NAD83
Elevation:3020.6 m
Vertical Datum: MSL

Data LinkVariable NameUnitTime SupportQC LevelOffset H/DStart DateEnd DateCount
Metadata & DataBattery voltageV30.0 min1 2011-09-30 2016-12-31 92134
Battery voltageV1.0 d2 2011-09-30 2012-02-29 153
Metadata & DataRadiation, netW/m^230.0 min12.75 m2011-09-30 2016-12-31 92134
Radiation, netW/m^21.0 d22.75 m2011-09-30 2012-02-29 153
Metadata & DataRelative humidity%30.0 min12.45 m2011-09-30 2016-12-31 92134
Relative humidity%1.0 d22.45 m2011-09-30 2012-02-29 153
Metadata & DataTemperaturedegC30.0 min12.45 m2011-09-30 2016-12-31 92134
TemperaturedegC1.0 d22.45 m2011-09-30 2012-02-29 153
Latitude:35.882517
Longitude:-106.535733
Spatial Reference:  NAD83
Elevation:3014.8 m
Vertical Datum: MSL

Data LinkVariable NameUnitTime SupportQC LevelOffset H/DStart DateEnd DateCount
Metadata & DataSnow depthcm15.0 min0 2013-10-18 2014-01-16 8690
Metadata & DataSnow depthcm15.0 min1 2010-10-28 2012-04-13 35941
Latitude:35.882517
Longitude:-106.535817
Spatial Reference:  NAD83
Elevation:3016.0 m
Vertical Datum: MSL

Data LinkVariable NameUnitTime SupportQC LevelOffset H/DStart DateEnd DateCount
Metadata & DataSnow depthcm15.0 min1 2010-10-28 2012-04-13 35941
Metadata & DataSnow depthcm15.0 min0 2013-10-18 2014-01-16 8690
Latitude:35.882383
Longitude:-106.5346
Spatial Reference:  NAD83
Elevation:3016.3 m
Vertical Datum: MSL

Data LinkVariable NameUnitTime SupportQC LevelOffset H/DStart DateEnd DateCount
Metadata & DataSnow depthcm15.0 min1 2010-10-28 2011-05-06 18255
Latitude:35.8824
Longitude:-106.53475
Spatial Reference:  NAD83
Elevation:3015.1 m
Vertical Datum: MSL

Data LinkVariable NameUnitTime SupportQC LevelOffset H/DStart DateEnd DateCount
Metadata & DataSnow depthcm15.0 min1 2010-10-28 2012-04-13 35941
Metadata & DataSnow depthcm15.0 min0 2013-10-18 2016-05-31 52923
Latitude:35.889161
Longitude:-106.532233
Spatial Reference:  NAD83
Elevation:3035.0 m
Vertical Datum: NAVD88

Data LinkVariable NameUnitTime SupportQC LevelOffset H/DStart DateEnd DateCount
Barometric pressurekPa30.0 min12.0 m2007-01-01 2009-12-31 52455
Metadata & DataBarometric pressurekPa30.0 min12.0 m2007-01-01 2012-12-31 105216
Carbon dioxideumol/mol30.0 min121.65 m2007-01-01 2009-12-31 52455
Metadata & DataCarbon dioxideumol/mol30.0 min121.65 m2007-01-01 2012-12-31 105216
Carbon dioxide fluxumol/m^2 s30.0 min121.65 m2007-01-01 2009-12-31 52455
Carbon dioxide fluxumol/m^2 s30.0 min221.65 m2007-01-01 2009-12-31 52455
Metadata & DataCarbon dioxide fluxumol/m^2 s30.0 min121.65 m2007-01-01 2012-12-31 105216
Metadata & DataCarbon dioxide fluxumol/m^2 s30.0 min221.65 m2007-01-01 2012-12-31 105216
Friction velocitym/s30.0 min121.65 m2007-01-01 2009-12-31 52455
Metadata & DataFriction velocitym/s30.0 min121.65 m2007-01-01 2012-12-31 105216
Gross primary productivityumol/m^2 s30.0 min1 2007-01-01 2009-12-31 52455
Gross primary productivityumol/m^2 s30.0 min2 2007-01-01 2009-12-31 52455
Metadata & DataGross primary productivityumol/m^2 s30.0 min1 2007-01-01 2012-12-31 105216
Metadata & DataGross primary productivityumol/m^2 s30.0 min2 2007-01-01 2012-12-31 105216
Latent heat fluxW/m^230.0 min121.65 m2007-01-01 2009-12-31 52455
Latent Heat FluxW/m^230.0 min221.65 m2007-01-01 2009-12-31 52455
Metadata & DataLatent heat fluxW/m^230.0 min121.65 m2007-01-01 2012-12-31 105216
Metadata & DataLatent Heat FluxW/m^230.0 min221.65 m2007-01-01 2012-12-31 105216
Precipitationmm30.0 min110.0 m2007-01-01 2009-12-31 52455
Metadata & DataPrecipitationmm30.0 min110.0 m2007-01-01 2012-12-31 105216
Radiation, incoming longwaveW/m^230.0 min121.65 m2009-01-01 2009-12-31 17519
Metadata & DataRadiation, incoming longwaveW/m^230.0 min121.65 m2009-01-01 2012-12-31 70128
Radiation, incoming PARumol/m^2 s30.0 min121.65 m2007-01-01 2009-12-31 52455
Metadata & DataRadiation, incoming PARumol/m^2 s30.0 min121.65 m2008-01-01 2012-12-31 87696
Radiation, incoming shortwaveW/m^230.0 min121.65 m2007-01-01 2009-12-31 52455
Radiation, incoming shortwaveW/m^230.0 min221.65 m2007-01-01 2009-12-31 52455
Metadata & DataRadiation, incoming shortwaveW/m^230.0 min121.65 m2007-01-01 2012-12-31 105216
Metadata & DataRadiation, incoming shortwaveW/m^230.0 min221.65 m2007-01-01 2012-12-31 105216
Radiation, netW/m^230.0 min121.65 m2009-01-01 2009-12-31 17519
Metadata & DataRadiation, netW/m^230.0 min121.65 m2009-01-01 2012-12-31 70128
Radiation, outgoing longwaveW/m^230.0 min121.65 m2009-01-01 2009-12-31 17519
Metadata & DataRadiation, outgoing longwaveW/m^230.0 min121.65 m2009-01-01 2012-12-31 70128
Radiation, outgoing shortwaveW/m^230.0 min121.65 m2007-01-01 2009-12-31 52455
Metadata & DataRadiation, outgoing shortwaveW/m^230.0 min121.65 m2007-01-01 2012-12-31 105216
Relative humidity%30.0 min121.65 m2007-01-01 2009-12-31 52455
Metadata & DataRelative humidity%30.0 min121.65 m2007-01-01 2012-12-31 105216
Metadata & DataRelative humidity%30.0 min221.65 m2007-01-01 2012-12-31 105216
Respiration, ecosystemumol/m^2 s30.0 min1 2007-01-01 2009-12-31 52455
Respiration, ecosystemumol/m^2 s30.0 min2 2007-01-01 2009-12-31 52455
Metadata & DataRespiration, ecosystemumol/m^2 s30.0 min1 2007-01-01 2012-12-31 105216
Metadata & DataRespiration, ecosystemumol/m^2 s30.0 min2 2007-01-01 2012-12-31 105216
Sensible heat fluxW/m^230.0 min121.65 m2007-01-01 2009-12-31 52455
Sensible Heat FluxW/m^230.0 min221.65 m2007-01-01 2009-12-31 52455
Metadata & DataSensible heat fluxW/m^230.0 min121.65 m2007-01-01 2012-12-31 105216
Metadata & DataSensible Heat FluxW/m^230.0 min221.65 m2007-01-01 2012-12-31 105216
TemperaturedegC30.0 min15.0 cm2007-01-01 2009-12-31 52455
TemperaturedegC30.0 min121.65 m2007-01-01 2009-12-31 52455
TemperaturedegC30.0 min221.65 m2007-01-01 2009-12-31 52455
Metadata & DataTemperaturedegC30.0 min121.65 m2007-01-01 2012-12-31 105216
Metadata & DataTemperaturedegC30.0 min221.65 m2007-01-01 2012-12-31 105216
Vapor pressure deficitkPa30.0 min1 2007-01-01 2009-12-31 52455
Vapor pressure deficitkPa30.0 min2 2007-01-01 2009-12-31 52455
Metadata & DataVapor pressure deficitkPa30.0 min1 2007-01-01 2012-12-31 105216
Metadata & DataVapor pressure deficitkPa30.0 min2 2007-01-01 2012-12-31 105216
Volumetric water content%30.0 min15.0 cm2007-01-01 2009-12-31 52455
Water fluxmg/m2 s30.0 min121.65 m2009-01-01 2009-12-31 17519
Metadata & DataWater fluxmg/m2 s30.0 min121.65 m2007-01-01 2012-12-31 105216
Water vapor concentrationmmol/mol30.0 min121.65 m2007-01-01 2009-12-31 52455
Metadata & DataWater vapor concentrationmmol/mol30.0 min121.65 m2007-01-01 2012-12-31 105216
Wind directiondeg30.0 min121.65 m2007-01-01 2009-12-31 52455
Metadata & DataWind directiondeg30.0 min121.65 m2007-01-01 2012-12-31 105216
Wind speedm/s30.0 min121.65 m2007-01-01 2009-12-31 52455
Metadata & DataWind speedm/s30.0 min121.65 m2007-01-01 2012-12-31 105216
Latitude:35.864103
Longitude:-106.596482
Spatial Reference:  NAD83
Elevation:2495.0 m
Vertical Datum: NAVD88

Data LinkVariable NameUnitTime SupportQC LevelOffset H/DStart DateEnd DateCount
Metadata & DataBarometric pressurekPa30.0 min12.0 m2007-01-01 2012-09-18 100217
Metadata & DataCarbon dioxideumol/mol30.0 min118.5 m2007-01-01 2012-09-18 100217
Metadata & DataCarbon dioxide fluxumol/m^2 s30.0 min118.5 m2007-01-01 2012-09-18 100217
Metadata & DataCarbon dioxide fluxumol/m^2 s30.0 min218.5 m2007-01-01 2012-09-18 100217
Metadata & DataFriction velocitym/s30.0 min118.5 m2007-01-01 2012-09-18 100217
Metadata & DataGross primary productivityumol/m^2 s30.0 min1 2007-01-01 2012-09-18 100217
Metadata & DataGross primary productivityumol/m^2 s30.0 min2 2007-01-01 2012-09-18 100217
Metadata & DataLatent heat fluxW/m^230.0 min118.5 m2007-01-01 2012-09-18 100217
Metadata & DataLatent Heat FluxW/m^230.0 min218.5 m2007-01-01 2012-09-18 100217
Metadata & DataPrecipitationmm30.0 min15.0 m2007-01-01 2012-09-18 100217
Metadata & DataRadiation, incoming longwaveW/m^230.0 min118.5 m2007-01-01 2012-09-18 100217
Metadata & DataRadiation, incoming PARumol/m^2 s30.0 min118.5 m2007-01-01 2012-09-18 100217
Metadata & DataRadiation, incoming shortwaveW/m^230.0 min118.5 m2007-01-01 2012-09-18 100217
Metadata & DataRadiation, incoming shortwaveW/m^230.0 min218.5 m2007-01-01 2012-09-18 100217
Metadata & DataRadiation, netW/m^230.0 min118.5 m2007-01-01 2012-09-18 100217
Metadata & DataRadiation, outgoing longwaveW/m^230.0 min118.5 m2007-01-01 2012-09-18 100217
Metadata & DataRadiation, outgoing shortwaveW/m^230.0 min118.5 m2007-01-01 2012-09-18 100217
Metadata & DataRelative humidity%30.0 min118.5 m2007-01-01 2012-09-18 100217
Metadata & DataRelative humidity%30.0 min218.5 m2011-01-01 2012-09-18 30096
Metadata & DataRespiration, ecosystemumol/m^2 s30.0 min1 2007-01-01 2012-09-18 100217
Metadata & DataRespiration, ecosystemumol/m^2 s30.0 min2 2007-01-01 2012-09-18 100217
Metadata & DataSensible heat fluxW/m^230.0 min118.5 m2007-01-01 2012-09-18 100217
Metadata & DataSensible Heat FluxW/m^230.0 min218.5 m2007-01-01 2012-09-18 100217
Metadata & DataTemperaturedegC30.0 min15.0 cm2007-01-01 2010-12-31 70121
Metadata & DataTemperaturedegC30.0 min118.5 m2007-01-01 2012-09-18 100217
Metadata & DataTemperaturedegC30.0 min218.5 m2007-01-01 2012-09-18 100217
Metadata & DataVapor pressure deficitkPa30.0 min1 2007-01-01 2012-09-18 100217
Metadata & DataVapor pressure deficitkPa30.0 min2 2007-01-01 2012-09-18 100217
Metadata & DataVolumetric water content%30.0 min15.0 cm2007-01-01 2010-12-31 70121
Metadata & DataWater fluxmg/m2 s30.0 min118.5 m2009-01-01 2012-09-18 65129
Metadata & DataWater vapor concentrationmmol/mol30.0 min118.5 m2007-01-01 2012-09-18 100217
Metadata & DataWind directiondeg30.0 min118.5 m2007-01-01 2012-09-18 100217
Metadata & DataWind speedm/s30.0 min118.5 m2007-01-01 2012-09-18 100217
Latitude:35.882318
Longitude:-106.534265
Spatial Reference:  NAD83
Elevation:3014.2 m
Vertical Datum: MSL

Data LinkVariable NameUnitTime SupportQC LevelOffset H/DStart DateEnd DateCount
Metadata & DataTemperaturedegC30.0 min13.0 cm2011-02-21 2012-11-08 30035
Metadata & DataVelocitycm/s30.0 min23.0 cm2011-02-21 2012-11-08 30035
Latitude:35.882208
Longitude:-106.534473
Spatial Reference:  NAD83
Elevation:3014.2 m
Vertical Datum: MSL

Data LinkVariable NameUnitTime SupportQC LevelOffset H/DStart DateEnd DateCount
Metadata & DataTemperaturedegC30.0 min13.0 cm2011-02-21 2012-11-08 30035
Metadata & DataVelocitycm/s30.0 min23.0 cm2011-02-21 2012-11-08 30035
Latitude:35.88232
Longitude:-106.534154
Spatial Reference:  NAD83
Elevation:3014.2 m
Vertical Datum: MSL

Data LinkVariable NameUnitTime SupportQC LevelOffset H/DStart DateEnd DateCount
Metadata & DataTemperaturedegC30.0 min13.0 cm2011-02-21 2012-11-08 30035
Metadata & DataVelocitycm/s30.0 min23.0 cm2011-02-21 2012-11-08 30035
Latitude:35.882259
Longitude:-106.534685
Spatial Reference:  NAD83
Elevation:3014.2 m
Vertical Datum: MSL

Data LinkVariable NameUnitTime SupportQC LevelOffset H/DStart DateEnd DateCount
Metadata & DataTemperaturedegC30.0 min13.0 cm2011-02-21 2012-11-08 30035
Metadata & DataVelocitycm/s30.0 min23.0 cm2011-02-21 2012-11-08 30035
Latitude:35.882361
Longitude:-106.534432
Spatial Reference:  NAD83
Elevation:3014.2 m
Vertical Datum: MSL

Data LinkVariable NameUnitTime SupportQC LevelOffset H/DStart DateEnd DateCount
Metadata & DataTemperaturedegC30.0 min13.0 cm2011-02-21 2012-11-08 30035
Metadata & DataVelocitycm/s30.0 min23.0 cm2011-02-21 2012-11-08 30035
Latitude:35.882327
Longitude:-106.534343
Spatial Reference:  NAD83
Elevation:3014.2 m
Vertical Datum: MSL

Data LinkVariable NameUnitTime SupportQC LevelOffset H/DStart DateEnd DateCount
Metadata & DataTemperaturedegC30.0 min13.0 cm2011-02-21 2012-11-08 30035
Metadata & DataVelocitycm/s30.0 min23.0 cm2011-02-21 2012-11-08 30035
Latitude:35.882209
Longitude:-106.534385
Spatial Reference:  NAD83
Elevation:3014.2 m
Vertical Datum: MSL

Data LinkVariable NameUnitTime SupportQC LevelOffset H/DStart DateEnd DateCount
Metadata & DataTemperaturedegC30.0 min13.0 cm2011-02-21 2012-11-08 30035
Metadata & DataVelocitycm/s30.0 min23.0 cm2011-02-21 2012-11-08 30035
Latitude:35.882459
Longitude:-106.534578
Spatial Reference:  NAD83
Elevation:3014.2 m
Vertical Datum: MSL

Data LinkVariable NameUnitTime SupportQC LevelOffset H/DStart DateEnd DateCount
Metadata & DataTemperaturedegC30.0 min13.0 cm2011-02-21 2012-11-08 30035
Metadata & DataVelocitycm/s30.0 min23.0 cm2011-02-21 2012-11-08 30035
Latitude:35.883356
Longitude:-106.536323
Spatial Reference:  NAD83
Elevation:3020.6 m
Vertical Datum: MSL

Data LinkVariable NameUnitTime SupportQC LevelOffset H/DStart DateEnd DateCount
Metadata & DataTemperaturedegC30.0 min13.0 cm2011-09-24 2012-11-08 19737
Metadata & DataVelocitycm/s30.0 min23.0 cm2011-09-24 2012-11-08 19737
Latitude:35.883555
Longitude:-106.536305
Spatial Reference:  NAD83
Elevation:3020.6 m
Vertical Datum: MSL

Data LinkVariable NameUnitTime SupportQC LevelOffset H/DStart DateEnd DateCount
Metadata & DataTemperaturedegC30.0 min13.0 cm2011-09-24 2012-11-08 19737
Metadata & DataVelocitycm/s30.0 min23.0 cm2011-09-24 2012-11-08 19737
Latitude:35.883628
Longitude:-106.536218
Spatial Reference:  NAD83
Elevation:3020.6 m
Vertical Datum: MSL

Data LinkVariable NameUnitTime SupportQC LevelOffset H/DStart DateEnd DateCount
Metadata & DataTemperaturedegC30.0 min13.0 cm2011-09-24 2012-11-08 19737
Metadata & DataVelocitycm/s30.0 min23.0 cm2011-09-24 2012-11-08 19737
Latitude:35.883311
Longitude:-106.536278
Spatial Reference:  NAD83
Elevation:3020.6 m
Vertical Datum: MSL

Data LinkVariable NameUnitTime SupportQC LevelOffset H/DStart DateEnd DateCount
Metadata & DataTemperaturedegC30.0 min13.0 cm2011-09-24 2012-11-08 19737
Metadata & DataVelocitycm/s30.0 min23.0 cm2011-09-24 2012-11-08 19737
Latitude:35.8835
Longitude:-106.536359
Spatial Reference:  NAD83
Elevation:3020.6 m
Vertical Datum: MSL

Data LinkVariable NameUnitTime SupportQC LevelOffset H/DStart DateEnd DateCount
Metadata & DataTemperaturedegC30.0 min13.0 cm2011-09-24 2012-11-08 19737
Metadata & DataVelocitycm/s30.0 min23.0 cm2011-09-24 2012-11-08 19737
Latitude:35.883463
Longitude:-106.536436
Spatial Reference:  NAD83
Elevation:3020.6 m
Vertical Datum: MSL

Data LinkVariable NameUnitTime SupportQC LevelOffset H/DStart DateEnd DateCount
Metadata & DataTemperaturedegC30.0 min13.0 cm2011-09-24 2012-11-08 19737
Metadata & DataVelocitycm/s30.0 min23.0 cm2011-09-24 2012-11-08 19737
Latitude:35.88348
Longitude:-106.53647
Spatial Reference:  NAD83
Elevation:3020.6 m
Vertical Datum: MSL

Data LinkVariable NameUnitTime SupportQC LevelOffset H/DStart DateEnd DateCount
Metadata & DataTemperaturedegC30.0 min13.0 cm2011-09-24 2012-11-08 19737
Metadata & DataVelocitycm/s30.0 min23.0 cm2011-09-24 2012-11-08 19737
Latitude:35.883637
Longitude:-106.536218
Spatial Reference:  NAD83
Elevation:3020.6 m
Vertical Datum: MSL

Data LinkVariable NameUnitTime SupportQC LevelOffset H/DStart DateEnd DateCount
Metadata & DataTemperaturedegC30.0 min13.0 cm2011-09-24 2012-11-08 19737
Metadata & DataVelocitycm/s30.0 min23.0 cm2011-09-24 2012-11-08 19737
Latitude:35.8503
Longitude:-106.450587
Spatial Reference:  NAD83
Elevation:2699.3 m
Vertical Datum: NAVD88

Data LinkVariable NameUnitTime SupportQC LevelOffset H/DStart DateEnd DateCount
Metadata & DataBulk electrical conductivitydS/m10.0 min010.0 cm2011-11-01 2017-05-04 289586
Metadata & DataBulk electrical conductivitydS/m10.0 min030.0 cm2011-11-01 2017-05-04 289586
Metadata & DataBulk electrical conductivitydS/m10.0 min060.0 cm2011-11-01 2017-05-04 289586
Metadata & DataTemperaturedegC10.0 min010.0 cm2011-11-01 2017-05-04 289586
Metadata & DataTemperaturedegC10.0 min030.0 cm2011-11-01 2017-05-04 289586
Metadata & DataTemperaturedegC10.0 min030.0 cm2013-03-09 2017-05-04 218433
Metadata & DataTemperaturedegC10.0 min060.0 cm2011-11-01 2017-05-04 289586
Metadata & DataTemperaturedegC10.0 min090.0 cm2013-03-09 2017-05-04 218433
Metadata & DataVoltagemV10.0 min030.0 cm2012-03-10 2013-03-09 52416
Metadata & DataVoltagemV10.0 min090.0 cm2012-03-10 2013-03-09 52416
Metadata & DataVolumetric water contentm3/m310.0 min010.0 cm2011-11-01 2017-05-04 289586
Metadata & DataVolumetric water contentm3/m310.0 min030.0 cm2011-11-01 2017-05-04 289586
Metadata & DataVolumetric water contentm3/m310.0 min060.0 cm2011-11-01 2017-05-04 289586
Metadata & DataWater potentialkPa10.0 min030.0 cm2013-03-09 2017-05-04 218433
Metadata & DataWater potentialkPa10.0 min090.0 cm2013-03-09 2017-05-04 218433
Latitude:35.85055
Longitude:-106.450005
Spatial Reference:  NAD83
Elevation:2707.1 m
Vertical Datum: NAVD88

Data LinkVariable NameUnitTime SupportQC LevelOffset H/DStart DateEnd DateCount
Metadata & DataBulk electrical conductivitydS/m10.0 min010.0 cm2011-11-01 2017-05-04 289590
Metadata & DataBulk electrical conductivitydS/m10.0 min030.0 cm2011-11-01 2017-05-04 289590
Metadata & DataBulk electrical conductivitydS/m10.0 min080.0 cm2011-11-01 2017-05-04 289590
Metadata & DataTemperaturedegC10.0 min010.0 cm2011-11-01 2017-05-04 289590
Metadata & DataTemperaturedegC10.0 min030.0 cm2011-11-01 2017-05-04 289590
Metadata & DataTemperaturedegC10.0 min045.0 cm2013-03-10 2017-05-04 218291
Metadata & DataTemperaturedegC10.0 min070.0 cm2013-03-10 2017-05-04 218291
Metadata & DataTemperaturedegC10.0 min080.0 cm2011-11-01 2017-05-04 289590
Metadata & DataVoltagemV10.0 min045.0 cm2012-03-10 2013-03-10 52563
Metadata & DataVoltagemV10.0 min070.0 cm2012-03-10 2013-03-10 52563
Metadata & DataVolumetric water contentm3/m310.0 min010.0 cm2011-11-01 2017-05-04 289590
Metadata & DataVolumetric water contentm3/m310.0 min030.0 cm2011-11-01 2017-05-04 289590
Metadata & DataVolumetric water contentm3/m310.0 min080.0 cm2011-11-01 2017-05-04 289590
Metadata & DataWater potentialkPa10.0 min045.0 cm2013-03-10 2017-05-04 218291
Metadata & DataWater potentialkPa10.0 min070.0 cm2013-03-10 2017-05-04 218291
Latitude:35.849364
Longitude:-106.450448
Spatial Reference:  NAD83
Elevation:2727.7 m
Vertical Datum: NAVD88

Data LinkVariable NameUnitTime SupportQC LevelOffset H/DStart DateEnd DateCount
Metadata & DataBulk electrical conductivitydS/m10.0 min010.0 cm2011-11-18 2017-05-04 287137
Metadata & DataBulk electrical conductivitydS/m10.0 min030.0 cm2011-11-18 2017-05-04 287137
Metadata & DataBulk electrical conductivitydS/m10.0 min060.0 cm2011-11-18 2017-05-04 287137
Metadata & DataTemperaturedegC10.0 min010.0 cm2011-11-18 2017-05-04 287137
Metadata & DataTemperaturedegC10.0 min030.0 cm2011-11-18 2017-05-04 287137
Metadata & DataTemperaturedegC10.0 min035.0 cm2013-03-10 2017-05-04 218290
Metadata & DataTemperaturedegC10.0 min060.0 cm2011-11-18 2017-05-04 287137
Metadata & DataTemperaturedegC10.0 min085.0 cm2013-03-10 2017-05-04 218290
Metadata & DataVoltagemV10.0 min035.0 cm2012-04-12 2013-03-10 47811
Metadata & DataVoltagemV10.0 min085.0 cm2012-04-12 2013-03-10 47811
Metadata & DataVolumetric water contentm3/m310.0 min010.0 cm2011-11-18 2017-05-04 287137
Metadata & DataVolumetric water contentm3/m310.0 min030.0 cm2011-11-18 2017-05-04 287137
Metadata & DataVolumetric water contentm3/m310.0 min060.0 cm2011-11-18 2017-05-04 287137
Metadata & DataWater potentialkPa10.0 min035.0 cm2013-03-10 2017-05-04 218290
Metadata & DataWater potentialkPa10.0 min085.0 cm2013-03-10 2017-05-04 218290
Latitude:35.847826
Longitude:-106.449346
Spatial Reference:  NAD83
Elevation:2789.1 m
Vertical Datum: NAVD88

Data LinkVariable NameUnitTime SupportQC LevelOffset H/DStart DateEnd DateCount
Metadata & DataBulk electrical conductivitydS/m10.0 min010.0 cm2011-11-01 2017-05-04 289572
Metadata & DataBulk electrical conductivitydS/m10.0 min035.0 cm2011-11-01 2017-05-04 289572
Metadata & DataBulk electrical conductivitydS/m10.0 min065.0 cm2011-11-01 2017-05-04 289572
Metadata & DataTemperaturedegC10.0 min010.0 cm2011-11-01 2017-05-04 289572
Metadata & DataTemperaturedegC10.0 min035.0 cm2011-11-01 2017-05-04 289572
Metadata & DataTemperaturedegC10.0 min040.0 cm2013-03-10 2017-05-04 218286
Metadata & DataTemperaturedegC10.0 min065.0 cm2011-11-01 2017-05-04 289572
Metadata & DataTemperaturedegC10.0 min070.0 cm2013-03-10 2017-05-04 218286
Metadata & DataVoltagemV10.0 min040.0 cm2012-03-10 2013-03-10 52550
Metadata & DataVoltagemV10.0 min070.0 cm2012-03-10 2013-03-10 52550
Metadata & DataVolumetric water contentm3/m310.0 min010.0 cm2011-11-01 2017-05-04 289572
Metadata & DataVolumetric water contentm3/m310.0 min035.0 cm2011-11-01 2017-05-04 289572
Metadata & DataVolumetric water contentm3/m310.0 min065.0 cm2011-11-01 2017-05-04 289572
Metadata & DataWater potentialkPa10.0 min040.0 cm2013-03-10 2017-05-04 218286
Metadata & DataWater potentialkPa10.0 min070.0 cm2013-03-10 2017-05-04 218286
Latitude:35.847973
Longitude:-106.449925
Spatial Reference:  NAD83
Elevation:2788.1 m
Vertical Datum: NAVD88

Data LinkVariable NameUnitTime SupportQC LevelOffset H/DStart DateEnd DateCount
Metadata & DataBulk electrical conductivitydS/m10.0 min010.0 cm2011-11-01 2017-05-04 277637
Metadata & DataBulk electrical conductivitydS/m10.0 min035.0 cm2011-11-01 2017-05-04 277637
Metadata & DataBulk electrical conductivitydS/m10.0 min068.0 cm2011-11-01 2017-05-04 277637
Metadata & DataTemperaturedegC10.0 min010.0 cm2011-11-01 2017-05-04 277637
Metadata & DataTemperaturedegC10.0 min035.0 cm2011-11-01 2017-05-04 277637
Metadata & DataTemperaturedegC10.0 min035.0 cm2013-03-13 2017-05-04 217873
Metadata & DataTemperaturedegC10.0 min068.0 cm2011-11-01 2017-05-04 277637
Metadata & DataTemperaturedegC10.0 min087.0 cm2013-03-13 2017-05-04 217873
Metadata & DataVoltagemV10.0 min035.0 cm2012-03-10 2012-12-20 41029
Metadata & DataVoltagemV10.0 min087.0 cm2012-03-10 2012-12-20 41029
Metadata & DataVolumetric water contentm3/m310.0 min010.0 cm2011-11-01 2017-05-04 277637
Metadata & DataVolumetric water contentm3/m310.0 min035.0 cm2011-11-01 2017-05-04 277637
Metadata & DataVolumetric water contentm3/m310.0 min068.0 cm2011-11-01 2017-05-04 277637
Metadata & DataWater potentialkPa10.0 min035.0 cm2013-03-13 2017-05-04 217873
Metadata & DataWater potentialkPa10.0 min087.0 cm2013-03-13 2017-05-04 217873
Latitude:35.848205
Longitude:-106.450859
Spatial Reference:  NAD83
Elevation:2788.8 m
Vertical Datum: NAVD88

Data LinkVariable NameUnitTime SupportQC LevelOffset H/DStart DateEnd DateCount
Metadata & DataBulk electrical conductivitydS/m10.0 min011.0 cm2011-11-01 2017-05-04 268654
Metadata & DataBulk electrical conductivitydS/m10.0 min033.0 cm2011-11-01 2017-05-04 268654
Metadata & DataBulk electrical conductivitydS/m10.0 min059.0 cm2011-11-01 2017-05-04 268654
Metadata & DataTemperaturedegC10.0 min011.0 cm2011-11-01 2017-05-04 268654
Metadata & DataTemperaturedegC10.0 min022.0 cm2013-03-10 2017-05-04 197367
Metadata & DataTemperaturedegC10.0 min033.0 cm2011-11-01 2017-05-04 268654
Metadata & DataTemperaturedegC10.0 min059.0 cm2011-11-01 2017-05-04 268654
Metadata & DataTemperaturedegC10.0 min063.0 cm2013-03-10 2017-05-04 197367
Metadata & DataVoltagemV10.0 min022.0 cm2012-03-10 2013-03-10 52546
Metadata & DataVoltagemV10.0 min063.0 cm2012-03-10 2013-03-10 52546
Metadata & DataVolumetric water contentm3/m310.0 min011.0 cm2011-11-01 2017-05-04 268654
Metadata & DataVolumetric water contentm3/m310.0 min033.0 cm2011-11-01 2017-05-04 268654
Metadata & DataVolumetric water contentm3/m310.0 min059.0 cm2011-11-01 2017-05-04 268654
Metadata & DataWater potentialkPa10.0 min022.0 cm2013-03-10 2017-05-04 197367
Metadata & DataWater potentialkPa10.0 min063.0 cm2013-03-10 2017-05-04 197367
Latitude:35.882467
Longitude:-106.53405
Spatial Reference:  NAD83
Elevation:3017.5 m
Vertical Datum: MSL

Data LinkVariable NameUnitTime SupportQC LevelOffset H/DStart DateEnd DateCount
Metadata & DataBulk electrical conductivitydS/m10.0 min012.0 cm2010-09-29 2017-05-02 344664
Metadata & DataBulk electrical conductivitydS/m10.0 min037.0 cm2010-09-29 2017-05-02 344664
Metadata & DataBulk electrical conductivitydS/m10.0 min057.0 cm2010-09-29 2017-05-02 344664
Metadata & DataCarbon dioxideppm15.0 min02.0 cm2013-08-03 2017-03-31 125030
Metadata & DataCarbon dioxideppm15.0 min010.0 cm2013-08-03 2017-03-31 125030
Metadata & DataCarbon dioxideppm15.0 min030.0 cm2013-08-03 2017-03-31 125030
Metadata & DataCarbon dioxideppm15.0 min060.0 cm2013-08-03 2017-03-31 125030
Metadata & DataOxygen%15.0 min02.0 cm2013-08-03 2017-03-31 125030
Metadata & DataOxygen%15.0 min010.0 cm2013-08-03 2017-03-31 125030
Metadata & DataOxygen%15.0 min030.0 cm2013-08-03 2017-03-31 125030
Metadata & DataOxygen%15.0 min060.0 cm2013-08-03 2017-03-31 125030
Metadata & DataReduction potentialmV15.0 min05.0 cm2015-06-25 2017-03-16 60530
Metadata & DataReduction potentialmV15.0 min010.0 cm2015-06-25 2017-03-16 60530
Metadata & DataReduction potentialmV15.0 min030.0 cm2015-06-25 2017-03-16 60530
Metadata & DataReduction potentialmV15.0 min060.0 cm2015-06-25 2017-03-16 60530
Metadata & DataTemperaturedegC15.0 min02.0 cm2013-08-03 2017-03-31 125030
Metadata & DataTemperaturedegC15.0 min010.0 cm2013-08-03 2017-03-31 125030
Metadata & DataTemperaturedegC10.0 min012.0 cm2010-09-29 2017-05-02 344664
Metadata & DataTemperaturedegC15.0 min030.0 cm2013-08-03 2017-03-31 125030
Metadata & DataTemperaturedegC10.0 min037.0 cm2010-09-29 2017-05-02 344664
Metadata & DataTemperaturedegC10.0 min057.0 cm2010-09-29 2017-05-02 344664
Metadata & DataTemperaturedegC15.0 min060.0 cm2013-08-03 2017-03-31 125030
Metadata & DataVoltagemV10.0 min012.0 cm2010-09-29 2017-05-02 344664
Metadata & DataVoltagemV10.0 min023.0 cm2010-09-29 2017-05-02 344664
Metadata & DataVolumetric water contentm3/m310.0 min012.0 cm2010-09-29 2017-05-02 344664
Metadata & DataVolumetric water contentm3/m310.0 min037.0 cm2010-09-29 2017-05-02 344664
Metadata & DataVolumetric water contentm3/m310.0 min057.0 cm2010-09-29 2017-05-02 344664
Latitude:35.881983
Longitude:-106.53575
Spatial Reference:  NAD83
Elevation:3009.3 m
Vertical Datum: MSL

Data LinkVariable NameUnitTime SupportQC LevelOffset H/DStart DateEnd DateCount
Metadata & DataBulk electrical conductivitydS/m10.0 min09.5 cm2010-09-17 2017-05-02 345182
Metadata & DataBulk electrical conductivitydS/m10.0 min044.0 cm2010-09-17 2017-05-02 345182
Metadata & DataBulk electrical conductivitydS/m10.0 min065.0 cm2010-09-17 2017-05-02 345182
Metadata & DataCarbon dioxideppm15.0 min02.0 cm2013-08-03 2017-03-16 85089
Metadata & DataCarbon dioxideppm15.0 min010.0 cm2013-08-03 2017-03-16 85089
Metadata & DataCarbon dioxideppm15.0 min030.0 cm2013-08-03 2017-03-16 85089
Metadata & DataCarbon dioxideppm15.0 min060.0 cm2013-08-03 2017-03-16 85089
Metadata & DataOxygen%15.0 min02.0 cm2013-08-03 2017-03-16 85089
Metadata & DataOxygen%15.0 min010.0 cm2013-08-03 2017-03-16 85089
Metadata & DataOxygen%15.0 min030.0 cm2013-08-03 2017-03-16 85089
Metadata & DataOxygen%15.0 min060.0 cm2013-08-03 2017-03-16 85089
Metadata & DataReduction potentialmV15.0 min05.0 cm2014-07-22 2017-03-16 92977
Metadata & DataReduction potentialmV15.0 min010.0 cm2014-07-22 2017-03-16 92977
Metadata & DataReduction potentialmV15.0 min030.0 cm2014-07-22 2017-03-16 92977
Metadata & DataReduction potentialmV15.0 min060.0 cm2014-07-22 2017-03-16 92977
Metadata & DataTemperaturedegC15.0 min02.0 cm2013-08-03 2017-03-16 85089
Metadata & DataTemperaturedegC10.0 min09.5 cm2010-09-17 2017-05-02 345182
Metadata & DataTemperaturedegC15.0 min010.0 cm2013-08-03 2017-03-16 85089
Metadata & DataTemperaturedegC15.0 min030.0 cm2013-08-03 2017-03-16 85089
Metadata & DataTemperaturedegC10.0 min044.0 cm2010-09-17 2017-05-02 345182
Metadata & DataTemperaturedegC15.0 min060.0 cm2013-08-03 2017-03-16 85089
Metadata & DataTemperaturedegC10.0 min065.0 cm2010-09-17 2017-05-02 345182
Metadata & DataVoltagemV10.0 min011.0 cm2010-09-17 2017-05-02 345182
Metadata & DataVoltagemV10.0 min045.0 cm2010-09-17 2017-05-02 345182
Metadata & DataVolumetric water contentm3/m310.0 min09.5 cm2010-09-17 2017-05-02 345182
Metadata & DataVolumetric water contentm3/m310.0 min044.0 cm2010-09-17 2017-05-02 345182
Metadata & DataVolumetric water contentm3/m310.0 min065.0 cm2010-09-17 2017-05-02 345182
Latitude:35.882783
Longitude:-106.5374
Spatial Reference:  NAD83
Elevation:3048.3 m
Vertical Datum: MSL

Data LinkVariable NameUnitTime SupportQC LevelOffset H/DStart DateEnd DateCount
Metadata & DataBulk electrical conductivitydS/m10.0 min012.0 cm2010-09-22 2017-05-02 342807
Metadata & DataBulk electrical conductivitydS/m10.0 min030.0 cm2010-09-22 2017-05-02 342807
Metadata & DataBulk electrical conductivitydS/m10.0 min065.0 cm2010-09-22 2017-05-02 342807
Metadata & DataCarbon dioxideppm15.0 min02.0 cm2013-08-03 2017-03-06 122480
Metadata & DataCarbon dioxideppm15.0 min010.0 cm2013-08-03 2017-03-06 122480
Metadata & DataCarbon dioxideppm15.0 min030.0 cm2013-08-03 2017-03-06 122480
Metadata & DataCarbon dioxideppm15.0 min060.0 cm2013-08-03 2017-03-06 122480
Metadata & DataOxygen%15.0 min02.0 cm2013-08-03 2017-03-06 122480
Metadata & DataOxygen%15.0 min010.0 cm2013-08-03 2017-03-06 122480
Metadata & DataOxygen%15.0 min030.0 cm2013-08-03 2017-03-06 122480
Metadata & DataOxygen%15.0 min060.0 cm2013-08-03 2017-03-06 122480
Metadata & DataReduction potentialmV15.0 min05.0 cm2015-06-25 2017-03-16 60520
Metadata & DataReduction potentialmV15.0 min010.0 cm2015-06-25 2017-03-16 60520
Metadata & DataReduction potentialmV15.0 min030.0 cm2015-06-25 2017-03-16 60520
Metadata & DataReduction potentialmV15.0 min060.0 cm2015-06-25 2017-03-16 60520
Metadata & DataTemperaturedegC15.0 min02.0 cm2013-08-03 2017-03-06 122480
Metadata & DataTemperaturedegC15.0 min010.0 cm2013-08-03 2017-03-06 122480
Metadata & DataTemperaturedegC10.0 min012.0 cm2010-09-22 2017-05-02 342807
Metadata & DataTemperaturedegC10.0 min030.0 cm2010-09-22 2017-05-02 342807
Metadata & DataTemperaturedegC15.0 min030.0 cm2013-08-03 2017-03-06 122480
Metadata & DataTemperaturedegC15.0 min060.0 cm2013-08-03 2017-03-06 122480
Metadata & DataTemperaturedegC10.0 min065.0 cm2010-09-22 2017-05-02 342807
Metadata & DataVoltagemV10.0 min011.0 cm2010-09-22 2013-08-05 146130
Metadata & DataVoltagemV10.0 min029.0 cm2010-09-22 2013-08-05 146130
Metadata & DataVolumetric water contentm3/m310.0 min012.0 cm2010-09-22 2017-05-02 342807
Metadata & DataVolumetric water contentm3/m310.0 min030.0 cm2010-09-22 2017-05-02 342807
Metadata & DataVolumetric water contentm3/m310.0 min065.0 cm2010-09-22 2017-05-02 342807
Metadata & DataWater potentialkPa10.0 min011.0 cm2013-08-05 2017-05-02 196677
Metadata & DataWater potentialkPa10.0 min029.0 cm2013-08-05 2017-05-02 196677
Latitude:35.883167
Longitude:-106.53715
Spatial Reference:  NAD83
Elevation:3047.4 m
Vertical Datum: MSL

Data LinkVariable NameUnitTime SupportQC LevelOffset H/DStart DateEnd DateCount
Metadata & DataBulk electrical conductivitydS/m10.0 min010.0 cm2010-09-22 2017-05-02 345655
Metadata & DataBulk electrical conductivitydS/m10.0 min038.5 cm2010-09-22 2017-05-02 345655
Metadata & DataBulk electrical conductivitydS/m10.0 min062.0 cm2010-09-22 2017-05-02 345655
Metadata & DataCarbon dioxideppm15.0 min02.0 cm2013-08-03 2017-03-29 128052
Metadata & DataCarbon dioxideppm15.0 min010.0 cm2013-08-03 2017-03-29 128052
Metadata & DataCarbon dioxideppm15.0 min030.0 cm2013-08-03 2017-03-29 128052
Metadata & DataCarbon dioxideppm15.0 min060.0 cm2013-08-03 2017-03-29 128052
Metadata & DataOxygen%15.0 min02.0 cm2013-08-03 2017-03-29 128052
Metadata & DataOxygen%15.0 min010.0 cm2013-08-03 2017-03-29 128052
Metadata & DataOxygen%15.0 min030.0 cm2013-08-03 2017-03-29 128052
Metadata & DataOxygen%15.0 min060.0 cm2013-08-03 2017-03-29 128052
Metadata & DataReduction potentialmV15.0 min05.0 cm2015-06-25 2017-03-16 60528
Metadata & DataReduction potentialmV15.0 min010.0 cm2015-06-25 2017-03-16 60528
Metadata & DataReduction potentialmV15.0 min030.0 cm2015-06-25 2017-03-16 60528
Metadata & DataReduction potentialmV15.0 min060.0 cm2015-06-25 2017-03-16 60528
Metadata & DataTemperaturedegC15.0 min02.0 cm2013-08-03 2017-03-29 128052
Metadata & DataTemperaturedegC10.0 min010.0 cm2010-09-22 2017-05-02 345655
Metadata & DataTemperaturedegC15.0 min010.0 cm2013-08-03 2017-03-29 128052
Metadata & DataTemperaturedegC15.0 min030.0 cm2013-08-03 2017-03-29 128052
Metadata & DataTemperaturedegC10.0 min038.5 cm2010-09-22 2017-05-02 345655
Metadata & DataTemperaturedegC15.0 min060.0 cm2013-08-03 2017-03-29 128052
Metadata & DataTemperaturedegC10.0 min062.0 cm2010-09-22 2017-05-02 345655
Metadata & DataVoltagemV10.0 min011.0 cm2010-09-22 2013-08-13 150122
Metadata & DataVoltagemV10.0 min040.0 cm2010-09-22 2013-08-13 150122
Metadata & DataVolumetric water contentm3/m310.0 min010.0 cm2010-09-22 2017-05-02 345655
Metadata & DataVolumetric water contentm3/m310.0 min038.5 cm2010-09-22 2017-05-02 345655
Metadata & DataVolumetric water contentm3/m310.0 min062.0 cm2010-09-22 2017-05-02 345655
Metadata & DataWater potentialkPa10.0 min011.0 cm2013-08-13 2017-05-02 195533
Metadata & DataWater potentialkPa10.0 min040.0 cm2013-08-13 2017-05-02 195533
Latitude:35.882867
Longitude:-106.5355
Spatial Reference:  NAD83
Elevation:3026.4 m
Vertical Datum: MSL

Data LinkVariable NameUnitTime SupportQC LevelOffset H/DStart DateEnd DateCount
Metadata & DataBulk electrical conductivitydS/m10.0 min010.0 cm2010-10-27 2017-05-02 340624
Metadata & DataBulk electrical conductivitydS/m10.0 min027.0 cm2010-10-27 2017-05-02 340624
Metadata & DataBulk electrical conductivitydS/m10.0 min062.0 cm2010-10-27 2017-05-02 340624
Metadata & DataCarbon dioxideppm15.0 min02.0 cm2013-08-03 2017-03-28 128000
Metadata & DataCarbon dioxideppm15.0 min010.0 cm2013-08-03 2017-03-28 128000
Metadata & DataCarbon dioxideppm15.0 min030.0 cm2013-08-03 2017-03-28 128000
Metadata & DataCarbon dioxideppm15.0 min060.0 cm2013-08-03 2017-03-28 128000
Metadata & DataOxygen%15.0 min02.0 cm2013-08-03 2017-03-28 128000
Metadata & DataOxygen%15.0 min010.0 cm2013-08-03 2017-03-28 128000
Metadata & DataOxygen%15.0 min030.0 cm2013-08-03 2017-03-28 128000
Metadata & DataOxygen%15.0 min060.0 cm2013-08-03 2017-03-28 128000
Metadata & DataReduction potentialmV15.0 min05.0 cm2014-08-30 2017-03-16 89223
Metadata & DataReduction potentialmV15.0 min010.0 cm2014-08-30 2017-03-16 89223
Metadata & DataReduction potentialmV15.0 min030.0 cm2014-08-30 2017-03-16 89223
Metadata & DataReduction potentialmV15.0 min060.0 cm2014-08-30 2017-03-16 89223
Metadata & DataTemperaturedegC15.0 min02.0 cm2013-08-03 2017-03-28 128000
Metadata & DataTemperaturedegC10.0 min010.0 cm2010-10-27 2017-05-02 340624
Metadata & DataTemperaturedegC15.0 min010.0 cm2013-08-03 2017-03-28 128000
Metadata & DataTemperaturedegC10.0 min027.0 cm2010-10-27 2017-05-02 340624
Metadata & DataTemperaturedegC15.0 min030.0 cm2013-08-03 2017-03-28 128000
Metadata & DataTemperaturedegC15.0 min060.0 cm2013-08-03 2017-03-28 128000
Metadata & DataTemperaturedegC10.0 min062.0 cm2010-10-27 2017-05-02 340624
Metadata & DataVoltagemV10.0 min011.0 cm2010-10-27 2017-05-02 340624
Metadata & DataVoltagemV10.0 min035.0 cm2010-10-27 2017-05-02 340624
Metadata & DataVolumetric water contentm3/m310.0 min010.0 cm2010-10-27 2017-05-02 340624
Metadata & DataVolumetric water contentm3/m310.0 min027.0 cm2010-10-27 2017-05-02 340624
Metadata & DataVolumetric water contentm3/m310.0 min062.0 cm2010-10-27 2017-05-02 340624
Latitude:35.883
Longitude:-106.534267
Spatial Reference:  NAD83
Elevation:3019.0 m
Vertical Datum: MSL

Data LinkVariable NameUnitTime SupportQC LevelOffset H/DStart DateEnd DateCount
Metadata & DataBulk electrical conductivitydS/m10.0 min010.0 cm2010-09-22 2017-05-02 345652
Metadata & DataBulk electrical conductivitydS/m10.0 min025.0 cm2010-09-22 2017-05-02 345652
Metadata & DataBulk electrical conductivitydS/m10.0 min053.0 cm2010-09-22 2017-05-02 345652
Metadata & DataCarbon dioxideppm15.0 min02.0 cm2013-08-03 2017-03-31 116457
Metadata & DataCarbon dioxideppm15.0 min010.0 cm2013-08-03 2017-03-31 116457
Metadata & DataCarbon dioxideppm15.0 min030.0 cm2013-08-03 2017-03-31 116457
Metadata & DataCarbon dioxideppm15.0 min060.0 cm2013-08-03 2017-03-31 116457
Metadata & DataOxygen%15.0 min02.0 cm2013-08-03 2017-03-31 116457
Metadata & DataOxygen%15.0 min010.0 cm2013-08-03 2017-03-31 116457
Metadata & DataOxygen%15.0 min030.0 cm2013-08-03 2017-03-31 116457
Metadata & DataOxygen%15.0 min060.0 cm2013-08-03 2017-03-31 116457
Metadata & DataReduction potentialmV15.0 min05.0 cm2015-06-25 2017-03-16 60529
Metadata & DataReduction potentialmV15.0 min010.0 cm2015-06-25 2017-03-16 60529
Metadata & DataReduction potentialmV15.0 min030.0 cm2015-06-25 2017-03-16 60529
Metadata & DataReduction potentialmV15.0 min060.0 cm2015-06-25 2017-03-16 60529
Metadata & DataTemperaturedegC15.0 min02.0 cm2013-08-03 2017-03-31 116457
Metadata & DataTemperaturedegC10.0 min010.0 cm2010-09-22 2017-05-02 345652
Metadata & DataTemperaturedegC15.0 min010.0 cm2013-08-03 2017-03-31 116457
Metadata & DataTemperaturedegC10.0 min025.0 cm2010-09-22 2017-05-02 345652
Metadata & DataTemperaturedegC15.0 min030.0 cm2013-08-03 2017-03-31 116457
Metadata & DataTemperaturedegC10.0 min053.0 cm2010-09-22 2017-05-02 345652
Metadata & DataTemperaturedegC15.0 min060.0 cm2013-08-03 2017-03-31 116457
Metadata & DataVoltagemV10.0 min011.0 cm2010-09-22 2017-05-02 345652
Metadata & DataVoltagemV10.0 min023.0 cm2010-09-22 2017-05-02 345652
Metadata & DataVolumetric water contentm3/m310.0 min010.0 cm2010-09-22 2017-05-02 345652
Metadata & DataVolumetric water contentm3/m310.0 min025.0 cm2010-09-22 2017-05-02 345652
Metadata & DataVolumetric water contentm3/m310.0 min053.0 cm2010-09-22 2017-05-02 345652
Latitude:35.91916
Longitude:-106.61476
Spatial Reference:  NAD83
Elevation:2752.0 m
Vertical Datum: NAVD88

Data LinkVariable NameUnitTime SupportQC LevelOffset H/DStart DateEnd DateCount
Metadata & DataBulk electrical conductivitydS/m15.0 min010.0 cm2015-10-23 2017-03-08 48063
Metadata & DataBulk electrical conductivitydS/m15.0 min030.0 cm2015-10-23 2017-03-08 48063
Metadata & DataBulk electrical conductivitydS/m15.0 min060.0 cm2015-10-23 2017-03-08 48063
Metadata & DataBulk electrical conductivitydS/m15.0 min0135.0 cm2015-10-23 2017-03-08 48063
Metadata & DataCarbon dioxideppm15.0 min02.0 cm2015-10-23 2017-03-08 48067
Metadata & DataCarbon dioxideppm15.0 min010.0 cm2015-10-23 2017-03-08 48067
Metadata & DataCarbon dioxideppm15.0 min030.0 cm2015-10-23 2017-03-08 48067
Metadata & DataCarbon dioxideppm15.0 min060.0 cm2015-10-23 2017-03-08 48067
Metadata & DataOxygen%15.0 min02.0 cm2015-10-23 2017-03-08 48067
Metadata & DataOxygen%15.0 min010.0 cm2015-10-23 2017-03-08 48067
Metadata & DataOxygen%15.0 min030.0 cm2015-10-23 2017-03-08 48067
Metadata & DataOxygen%15.0 min060.0 cm2015-10-23 2017-03-08 48067
Metadata & DataTemperaturedegC15.0 min02.0 cm2015-10-23 2017-03-08 48067
Metadata & DataTemperaturedegC15.0 min010.0 cm2015-10-23 2017-03-08 48067
Metadata & DataTemperaturedegC15.0 min010.0 cm2015-10-23 2017-03-08 48063
Metadata & DataTemperaturedegC15.0 min010.0 cm2015-10-23 2017-03-08 48063
Metadata & DataTemperaturedegC15.0 min030.0 cm2015-10-23 2017-03-08 48067
Metadata & DataTemperaturedegC15.0 min030.0 cm2015-10-23 2017-03-08 48063
Metadata & DataTemperaturedegC15.0 min030.0 cm2015-10-23 2017-03-08 48063
Metadata & DataTemperaturedegC15.0 min060.0 cm2015-10-23 2017-03-08 48067
Metadata & DataTemperaturedegC15.0 min060.0 cm2015-10-23 2017-03-08 48063
Metadata & DataTemperaturedegC15.0 min0135.0 cm2015-10-23 2017-03-08 48063
Metadata & DataVolumetric water contentm3/m315.0 min010.0 cm2015-10-23 2017-03-08 48063
Metadata & DataVolumetric water contentm3/m315.0 min030.0 cm2015-10-23 2017-03-08 48063
Metadata & DataVolumetric water contentm3/m315.0 min060.0 cm2015-10-23 2017-03-08 48063
Metadata & DataVolumetric water contentm3/m315.0 min0135.0 cm2015-10-23 2017-03-08 48063
Metadata & DataWater potentialkPa15.0 min010.0 cm2015-10-23 2017-03-08 48063
Metadata & DataWater potentialkPa15.0 min030.0 cm2015-10-23 2017-03-08 48063
Latitude:35.919463
Longitude:-106.614797
Spatial Reference:  NAD83
Elevation:2751.3 m
Vertical Datum: NAVD88

Data LinkVariable NameUnitTime SupportQC LevelOffset H/DStart DateEnd DateCount
Metadata & DataBulk electrical conductivitydS/m15.0 min010.0 cm2015-10-23 2017-03-31 50459
Metadata & DataBulk electrical conductivitydS/m15.0 min030.0 cm2015-10-23 2017-03-31 50459
Metadata & DataBulk electrical conductivitydS/m15.0 min060.0 cm2015-10-23 2017-03-31 50459
Metadata & DataBulk electrical conductivitydS/m15.0 min0135.0 cm2015-10-23 2017-03-31 50459
Metadata & DataCarbon dioxideppm15.0 min02.0 cm2015-10-23 2017-03-31 50459
Metadata & DataCarbon dioxideppm15.0 min010.0 cm2015-10-23 2017-03-31 50459
Metadata & DataCarbon dioxideppm15.0 min030.0 cm2015-10-23 2017-03-31 50459
Metadata & DataCarbon dioxideppm15.0 min060.0 cm2015-10-23 2017-03-31 50459
Metadata & DataOxygen%15.0 min02.0 cm2015-10-23 2017-03-31 50459
Metadata & DataOxygen%15.0 min010.0 cm2015-10-23 2017-03-31 50459
Metadata & DataOxygen%15.0 min030.0 cm2015-10-23 2017-03-31 50459
Metadata & DataOxygen%15.0 min060.0 cm2015-10-23 2017-03-31 50459
Metadata & DataTemperaturedegC15.0 min02.0 cm2015-10-23 2017-03-31 50459
Metadata & DataTemperaturedegC15.0 min010.0 cm2015-10-23 2017-03-31 50459
Metadata & DataTemperaturedegC15.0 min010.0 cm2015-10-23 2017-03-31 50459
Metadata & DataTemperaturedegC15.0 min010.0 cm2015-10-23 2017-03-31 50459
Metadata & DataTemperaturedegC15.0 min030.0 cm2015-10-23 2017-03-31 50459
Metadata & DataTemperaturedegC15.0 min030.0 cm2015-10-23 2017-03-31 50459
Metadata & DataTemperaturedegC15.0 min030.0 cm2015-10-23 2017-03-31 50459
Metadata & DataTemperaturedegC15.0 min060.0 cm2015-10-23 2017-03-31 50459
Metadata & DataTemperaturedegC15.0 min060.0 cm2015-10-23 2017-03-31 50459
Metadata & DataTemperaturedegC15.0 min0135.0 cm2015-10-23 2017-03-31 50459
Metadata & DataVolumetric water contentm3/m315.0 min010.0 cm2015-10-23 2017-03-31 50459
Metadata & DataVolumetric water contentm3/m315.0 min030.0 cm2015-10-23 2017-03-31 50459
Metadata & DataVolumetric water contentm3/m315.0 min060.0 cm2015-10-23 2017-03-31 50459
Metadata & DataVolumetric water contentm3/m315.0 min0135.0 cm2015-10-23 2017-03-31 50459
Metadata & DataWater potentialkPa15.0 min010.0 cm2015-10-23 2017-03-31 50459
Metadata & DataWater potentialkPa15.0 min030.0 cm2015-10-23 2017-03-31 50459
Latitude:35.919445
Longitude:-106.61447
Spatial Reference:  NAD83
Elevation:2752.3 m
Vertical Datum: NAVD88

Data LinkVariable NameUnitTime SupportQC LevelOffset H/DStart DateEnd DateCount
Metadata & DataBulk electrical conductivitydS/m15.0 min010.0 cm2015-10-23 2017-03-08 48197
Metadata & DataBulk electrical conductivitydS/m15.0 min030.0 cm2015-10-23 2017-03-08 48197
Metadata & DataBulk electrical conductivitydS/m15.0 min060.0 cm2015-10-23 2017-03-08 48197
Metadata & DataBulk electrical conductivitydS/m15.0 min0135.0 cm2015-10-23 2017-03-08 48197
Metadata & DataCarbon dioxideppm15.0 min02.0 cm2015-10-23 2017-03-08 48197
Metadata & DataCarbon dioxideppm15.0 min010.0 cm2015-10-23 2017-03-08 48197
Metadata & DataCarbon dioxideppm15.0 min030.0 cm2015-10-23 2017-03-08 48197
Metadata & DataCarbon dioxideppm15.0 min060.0 cm2015-10-23 2017-03-08 48197
Metadata & DataOxygen%15.0 min02.0 cm2015-10-23 2017-03-08 48197
Metadata & DataOxygen%15.0 min010.0 cm2015-10-23 2017-03-08 48197
Metadata & DataOxygen%15.0 min030.0 cm2015-10-23 2017-03-08 48197
Metadata & DataOxygen%15.0 min060.0 cm2015-10-23 2017-03-08 48197
Metadata & DataTemperaturedegC15.0 min02.0 cm2015-10-23 2017-03-08 48197
Metadata & DataTemperaturedegC15.0 min010.0 cm2015-10-23 2017-03-08 48197
Metadata & DataTemperaturedegC15.0 min010.0 cm2015-10-23 2017-03-08 48197
Metadata & DataTemperaturedegC15.0 min010.0 cm2015-10-23 2017-03-08 48197
Metadata & DataTemperaturedegC15.0 min030.0 cm2015-10-23 2017-03-08 48197
Metadata & DataTemperaturedegC15.0 min030.0 cm2015-10-23 2017-03-08 48197
Metadata & DataTemperaturedegC15.0 min030.0 cm2015-10-23 2017-03-08 48197
Metadata & DataTemperaturedegC15.0 min060.0 cm2015-10-23 2017-03-08 48197
Metadata & DataTemperaturedegC15.0 min060.0 cm2015-10-23 2017-03-08 48197
Metadata & DataTemperaturedegC15.0 min0135.0 cm2015-10-23 2017-03-08 48197
Metadata & DataVolumetric water contentm3/m315.0 min010.0 cm2015-10-23 2017-03-08 48197
Metadata & DataVolumetric water contentm3/m315.0 min030.0 cm2015-10-23 2017-03-08 48197
Metadata & DataVolumetric water contentm3/m315.0 min060.0 cm2015-10-23 2017-03-08 48197
Metadata & DataVolumetric water contentm3/m315.0 min0135.0 cm2015-10-23 2017-03-08 48197
Metadata & DataWater potentialkPa15.0 min010.0 cm2015-10-23 2017-03-08 48197
Metadata & DataWater potentialkPa15.0 min030.0 cm2015-10-23 2017-03-08 48197
Latitude:35.8759
Longitude:-106.5125
Spatial Reference:  NAD83
Elevation:2685.0 m
Vertical Datum: MSL

Data LinkVariable NameUnitTime SupportQC LevelOffset H/DStart DateEnd DateCount
Metadata & DataStreamflowcfs30.0 min2 2007-10-01 2013-09-30 105216
Latitude:35.8929
Longitude:-106.4958
Spatial Reference:  NAD83
Elevation:2633.0 m
Vertical Datum: MSL

Data LinkVariable NameUnitTime SupportQC LevelOffset H/DStart DateEnd DateCount
Metadata & DataStreamflowcfs30.0 min2 2007-10-01 2015-09-30 140256
Latitude:35.8667
Longitude:-106.5215
Spatial Reference:  NAD83
Elevation:2696.0 m
Vertical Datum: MSL

Data LinkVariable NameUnitTime SupportQC LevelOffset H/DStart DateEnd DateCount
Metadata & DataStreamflowcfs30.0 min2 2007-10-01 2013-09-30 105216
Latitude:35.8663
Longitude:-106.5978
Spatial Reference:  NAD83
Elevation:2508.0 m
Vertical Datum: MSL

Data LinkVariable NameUnitTime SupportQC LevelOffset H/DStart DateEnd DateCount
Metadata & DataStreamflowcfs30.0 min2 2007-10-01 2010-09-30 52608
Latitude:35.8546
Longitude:-106.5941
Spatial Reference:  NAD83
Elevation:2471.0 m
Vertical Datum: MSL

Data LinkVariable NameUnitTime SupportQC LevelOffset H/DStart DateEnd DateCount
Metadata & DataStreamflowcfs30.0 min2 2007-10-01 2010-09-30 52608
Latitude:35.9092
Longitude:-106.5304
Spatial Reference:  NAD83
Elevation:2722.0 m
Vertical Datum: MSL

Data LinkVariable NameUnitTime SupportQC LevelOffset H/DStart DateEnd DateCount
Metadata & DataStreamflowcfs30.0 min2 2007-10-01 2015-09-30 140256
Latitude:35.870333
Longitude:-106.527312
Spatial Reference:  NAD83
Elevation:2775.0 m
Vertical Datum: MSL

Data LinkVariable NameUnitTime SupportQC LevelOffset H/DStart DateEnd DateCount
Metadata & DataStreamflowcfs30.0 min2 2011-10-01 2013-09-30 35088
Latitude:35.8929
Longitude:-106.5766
Spatial Reference:  NAD83
Elevation:2724.0 m
Vertical Datum: MSL

Data LinkVariable NameUnitTime SupportQC LevelOffset H/DStart DateEnd DateCount
Metadata & DataStreamflowcfs30.0 min2 2007-10-01 2011-09-30 70128

National Science Foundation

▲ TOP